createdAt,value
2022-10-04T00:00:25.449Z,92.71
2022-10-04T00:02:58.850Z,92.37
2022-10-04T00:05:26.127Z,92.58
2022-10-04T00:07:57.047Z,92.39
2022-10-04T00:10:30.265Z,92.12
2022-10-04T00:13:00.000Z,91.36
2022-10-04T00:15:27.745Z,90.94
2022-10-04T00:18:12.470Z,90.57
2022-10-04T00:20:51.127Z,91.20
2022-10-04T00:23:23.757Z,91.69
2022-10-04T00:25:51.306Z,92.30
2022-10-04T00:28:20.596Z,92.08
2022-10-04T00:31:07.199Z,92.34
2022-10-04T00:33:45.038Z,92.07
2022-10-04T00:36:26.734Z,91.29
2022-10-04T00:39:05.273Z,91.10
2022-10-04T00:41:37.911Z,90.97
2022-10-04T00:44:06.474Z,91.21
2022-10-04T00:46:33.495Z,91.53
2022-10-04T00:49:03.473Z,91.78
2022-10-04T00:51:41.009Z,91.86
2022-10-04T00:54:18.631Z,91.73
2022-10-04T00:56:51.214Z,92.06
2022-10-04T00:59:26.878Z,91.97
2022-10-04T01:01:59.197Z,92.56
2022-10-04T01:04:38.329Z,93.00
2022-10-04T01:07:06.209Z,92.70
2022-10-04T01:09:34.937Z,93.41
2022-10-04T01:12:10.798Z,92.66
2022-10-04T01:14:57.795Z,92.25
2022-10-04T01:17:24.416Z,92.08
2022-10-04T01:19:53.356Z,92.60
2022-10-04T01:22:34.230Z,92.88
2022-10-04T01:25:00.982Z,93.16
2022-10-04T01:27:37.733Z,93.25
2022-10-04T01:30:09.227Z,92.79
2022-10-04T01:32:37.654Z,91.88
2022-10-04T01:35:05.216Z,91.79
2022-10-04T01:37:31.860Z,91.44
2022-10-04T01:39:58.869Z,92.39
2022-10-04T01:42:31.722Z,91.92
2022-10-04T01:45:02.999Z,92.71
2022-10-04T01:47:50.565Z,93.01
2022-10-04T01:50:21.559Z,93.10
2022-10-04T01:52:51.364Z,93.25
2022-10-04T01:55:24.698Z,93.04
2022-10-04T01:58:14.483Z,92.69
2022-10-04T02:00:51.600Z,91.79
2022-10-04T02:03:22.432Z,92.03
2022-10-04T02:05:54.560Z,92.05
2022-10-04T02:08:27.843Z,92.19
2022-10-04T02:10:55.039Z,91.90
2022-10-04T02:13:22.293Z,92.39
2022-10-04T02:15:49.614Z,92.48
2022-10-04T02:18:18.793Z,92.46
2022-10-04T02:20:45.979Z,91.63
2022-10-04T02:23:12.920Z,91.30
2022-10-04T02:25:39.784Z,91.09
2022-10-04T02:28:11.004Z,90.73
2022-10-04T02:30:43.014Z,90.67
2022-10-04T02:33:10.548Z,90.93
2022-10-04T02:35:47.108Z,91.03
2022-10-04T02:38:15.664Z,90.78
2022-10-04T02:41:17.611Z,90.83
2022-10-04T02:44:21.020Z,91.25
2022-10-04T02:46:52.744Z,90.94
2022-10-04T02:49:35.061Z,91.07
2022-10-04T02:52:19.789Z,90.30
2022-10-04T02:54:52.814Z,90.62
2022-10-04T02:57:21.649Z,90.56
2022-10-04T02:59:48.573Z,90.89
2022-10-04T03:02:41.681Z,91.38
2022-10-04T03:05:11.254Z,92.02
2022-10-04T03:07:39.473Z,91.73
2022-10-04T03:10:12.501Z,92.06
2022-10-04T03:12:42.050Z,92.12
2022-10-04T03:15:13.172Z,92.19
2022-10-04T03:17:43.207Z,91.82
2022-10-04T03:20:14.697Z,91.98
2022-10-04T03:22:46.929Z,91.80
2022-10-04T03:25:26.490Z,91.53
2022-10-04T03:27:54.273Z,91.06
2022-10-04T03:30:20.913Z,90.92
2022-10-04T03:32:48.672Z,90.92
2022-10-04T03:35:29.004Z,90.90
2022-10-04T03:37:57.337Z,90.77
2022-10-04T03:40:29.952Z,91.22
2022-10-04T03:42:58.040Z,91.63
2022-10-04T03:45:25.583Z,91.74
2022-10-04T03:47:53.336Z,92.31
2022-10-04T03:50:26.597Z,92.54
2022-10-04T03:53:09.229Z,91.87
2022-10-04T03:55:43.380Z,91.87
2022-10-04T03:58:18.215Z,91.69
2022-10-04T04:01:07.199Z,91.91
2022-10-04T04:03:44.875Z,91.63
2022-10-04T04:06:15.946Z,91.52
2022-10-04T04:08:43.253Z,91.41
2022-10-04T04:11:18.932Z,90.80
2022-10-04T04:14:01.049Z,90.03
2022-10-04T04:16:28.503Z,90.31
2022-10-04T04:18:58.773Z,90.34
2022-10-04T04:21:25.932Z,90.34
2022-10-04T04:23:59.133Z,90.55
2022-10-04T04:26:36.799Z,90.61
2022-10-04T04:29:18.567Z,90.46
2022-10-04T04:32:09.278Z,91.11
2022-10-04T04:34:50.324Z,91.45
2022-10-04T04:37:16.945Z,90.97
2022-10-04T04:39:49.358Z,90.95
2022-10-04T04:42:36.471Z,91.25
2022-10-04T04:45:16.822Z,90.25
2022-10-04T04:47:45.461Z,90.56
2022-10-04T04:50:15.418Z,91.18
2022-10-04T04:52:52.733Z,91.24
2022-10-04T04:55:28.313Z,91.14
2022-10-04T04:57:57.081Z,90.99
2022-10-04T05:00:29.567Z,90.87
2022-10-04T05:02:58.994Z,90.46
2022-10-04T05:05:28.101Z,90.27
2022-10-04T05:08:23.781Z,90.11
2022-10-04T05:11:06.353Z,90.44
2022-10-04T05:13:52.236Z,90.47
2022-10-04T05:16:51.098Z,90.98
2022-10-04T05:19:37.807Z,91.51
2022-10-04T05:22:16.946Z,91.41
2022-10-04T05:24:45.972Z,91.60
2022-10-04T05:27:18.310Z,91.47
2022-10-04T05:30:07.416Z,91.86
2022-10-04T05:32:41.079Z,91.61
2022-10-04T05:35:19.097Z,91.78
2022-10-04T05:37:57.684Z,91.71
2022-10-04T05:40:34.051Z,91.41
2022-10-04T05:43:00.744Z,91.21
2022-10-04T05:45:31.360Z,90.68
2022-10-04T05:48:00.842Z,90.81
2022-10-04T05:50:30.424Z,91.18
2022-10-04T05:53:24.468Z,91.24
2022-10-04T05:55:54.074Z,91.06
2022-10-04T05:58:41.501Z,90.96
2022-10-04T06:01:15.310Z,90.68
2022-10-04T06:04:09.625Z,90.58
2022-10-04T06:06:36.224Z,90.25
2022-10-04T06:09:14.440Z,90.66
2022-10-04T06:11:45.738Z,91.22
2022-10-04T06:14:38.829Z,91.40
2022-10-04T06:17:46.446Z,92.12
2022-10-04T06:20:35.000Z,92.20
2022-10-04T06:23:03.582Z,92.14
2022-10-04T06:25:49.961Z,92.20
2022-10-04T06:28:39.263Z,92.48
2022-10-04T06:31:31.783Z,92.99
2022-10-04T06:34:22.858Z,93.63
2022-10-04T06:37:09.713Z,93.90
2022-10-04T06:40:06.241Z,93.67
2022-10-04T06:43:11.193Z,93.62
2022-10-04T06:45:40.711Z,94.24
2022-10-04T06:48:28.907Z,94.59
2022-10-04T06:51:03.826Z,95.19
2022-10-04T06:53:53.025Z,94.59
2022-10-04T06:56:28.719Z,94.57
2022-10-04T06:59:07.764Z,94.32
2022-10-04T07:01:36.321Z,94.97
2022-10-04T07:04:18.129Z,95.29
2022-10-04T07:07:22.978Z,95.05
2022-10-04T07:10:09.383Z,95.09
2022-10-04T07:12:40.737Z,94.72
2022-10-04T07:15:17.546Z,94.90
2022-10-04T07:17:45.980Z,95.18
2022-10-04T07:20:25.854Z,95.84
2022-10-04T07:23:06.960Z,96.22
2022-10-04T07:25:49.458Z,96.45
2022-10-04T07:28:38.404Z,96.42
2022-10-04T07:31:11.889Z,96.14
2022-10-04T07:33:50.305Z,96.01
2022-10-04T07:36:46.683Z,95.58
2022-10-04T07:39:17.530Z,95.73
2022-10-04T07:41:55.934Z,95.92
2022-10-04T07:44:35.668Z,96.19
2022-10-04T07:47:19.285Z,96.35
2022-10-04T07:49:46.470Z,96.12
2022-10-04T07:52:31.741Z,95.23
2022-10-04T07:54:58.352Z,95.00
2022-10-04T07:57:31.165Z,94.81
2022-10-04T08:00:10.406Z,94.65
2022-10-04T08:02:58.901Z,94.37
2022-10-04T08:05:36.374Z,94.47
2022-10-04T08:08:40.637Z,94.63
2022-10-04T08:12:09.150Z,95.15
2022-10-04T08:14:44.527Z,94.95
2022-10-04T08:17:55.869Z,94.68
2022-10-04T08:20:25.340Z,94.46
2022-10-04T08:23:09.449Z,93.72
2022-10-04T08:25:44.582Z,94.16
2022-10-04T08:28:44.193Z,94.57
2022-10-04T08:31:34.877Z,93.32
2022-10-04T08:34:18.304Z,94.27
2022-10-04T08:37:06.713Z,94.25
2022-10-04T08:39:51.552Z,93.09
2022-10-04T08:42:25.805Z,92.02
2022-10-04T08:45:25.502Z,91.34
2022-10-04T08:48:01.548Z,91.13
2022-10-04T08:50:38.499Z,91.17
2022-10-04T08:53:15.551Z,90.99
2022-10-04T08:56:00.828Z,91.57
2022-10-04T08:58:52.178Z,92.71
2022-10-04T09:01:39.324Z,91.42
2022-10-04T09:04:33.858Z,90.43
2022-10-04T09:07:21.792Z,90.03
2022-10-04T09:10:25.099Z,89.67
2022-10-04T09:13:05.906Z,88.46
2022-10-04T09:15:42.782Z,88.60
2022-10-04T09:18:12.115Z,87.80
2022-10-04T09:20:44.721Z,86.06
2022-10-04T09:23:33.780Z,86.48
2022-10-04T09:26:13.402Z,86.88
2022-10-04T09:29:14.429Z,84.43
2022-10-04T09:31:48.173Z,84.50
2022-10-04T09:34:26.180Z,83.44
2022-10-04T09:37:20.457Z,82.11
2022-10-04T09:39:59.191Z,81.45
2022-10-04T09:42:43.728Z,82.41
2022-10-04T09:45:35.993Z,82.29
2022-10-04T09:48:25.755Z,81.29
2022-10-04T09:51:08.407Z,81.97
2022-10-04T09:53:44.473Z,81.74
2022-10-04T09:56:52.961Z,80.33
2022-10-04T09:59:32.464Z,80.88
2022-10-04T10:02:28.984Z,79.61
2022-10-04T10:05:27.093Z,78.50
2022-10-04T10:08:32.365Z,78.29
2022-10-04T10:11:21.596Z,78.85
2022-10-04T10:14:08.346Z,77.90
2022-10-04T10:16:46.508Z,76.48
2022-10-04T10:19:31.816Z,76.35
2022-10-04T10:22:07.277Z,76.64
2022-10-04T10:24:36.606Z,74.74
2022-10-04T10:27:40.481Z,74.84
2022-10-04T10:30:28.239Z,74.86
2022-10-04T10:33:05.201Z,74.35
2022-10-04T10:35:34.701Z,74.29
2022-10-04T10:38:19.580Z,72.76
2022-10-04T10:41:04.422Z,71.06
2022-10-04T10:44:02.987Z,69.43
2022-10-04T10:46:45.096Z,72.19
2022-10-04T10:49:59.827Z,70.88
2022-10-04T10:52:47.877Z,71.13
2022-10-04T10:55:27.002Z,70.89
2022-10-04T10:58:17.960Z,69.88
2022-10-04T11:01:06.402Z,67.27
2022-10-04T11:03:57.817Z,67.34
2022-10-04T11:06:53.477Z,67.22
2022-10-04T11:09:29.004Z,67.06
2022-10-04T11:12:22.912Z,65.64
2022-10-04T11:15:27.042Z,64.72
2022-10-04T11:18:24.420Z,64.70
2022-10-04T11:21:05.997Z,64.66
2022-10-04T11:24:00.668Z,64.57
2022-10-04T11:27:04.730Z,62.52
2022-10-04T11:29:31.287Z,61.47
2022-10-04T11:32:00.620Z,63.94
2022-10-04T11:34:58.085Z,62.82
2022-10-04T11:37:36.452Z,62.95
2022-10-04T11:40:21.032Z,61.90
2022-10-04T11:43:14.264Z,61.07
2022-10-04T11:46:14.285Z,61.39
2022-10-04T11:48:55.765Z,60.77
2022-10-04T11:52:02.033Z,60.01
2022-10-04T11:54:50.452Z,60.61
2022-10-04T11:57:32.200Z,59.89
2022-10-04T12:00:11.794Z,58.03
2022-10-04T12:03:15.879Z,57.02
2022-10-04T12:06:05.506Z,57.26
2022-10-04T12:08:41.442Z,56.22
2022-10-04T12:11:52.065Z,55.35
2022-10-04T12:14:23.328Z,53.21
2022-10-04T12:17:08.691Z,55.31
2022-10-04T12:20:02.405Z,53.01
2022-10-04T12:22:49.817Z,52.62
2022-10-04T12:25:29.540Z,52.10
2022-10-04T12:28:27.578Z,51.36
2022-10-04T12:31:33.483Z,51.38
2022-10-04T12:34:06.049Z,50.14
2022-10-04T12:36:59.233Z,50.51
2022-10-04T12:39:39.412Z,50.21
2022-10-04T12:42:25.816Z,49.98
2022-10-04T12:44:57.545Z,49.87
2022-10-04T12:47:30.501Z,49.39
2022-10-04T12:50:15.993Z,47.54
2022-10-04T12:53:21.638Z,46.36
2022-10-04T12:56:08.040Z,47.54
2022-10-04T12:59:03.329Z,46.92
2022-10-04T13:01:48.171Z,48.31
2022-10-04T13:04:26.520Z,46.08
2022-10-04T13:06:59.743Z,46.78
2022-10-04T13:09:59.737Z,47.59
2022-10-04T13:12:41.172Z,44.92
2022-10-04T13:17:23.327Z,44.70
2022-10-04T13:18:32.942Z,44.33
2022-10-04T13:21:02.535Z,44.86
2022-10-04T13:23:47.671Z,44.44
2022-10-04T13:26:59.924Z,43.37
2022-10-04T13:29:44.218Z,42.19
2022-10-04T13:32:16.485Z,41.23
2022-10-04T13:34:52.104Z,41.60
2022-10-04T13:37:21.961Z,41.43
2022-10-04T13:40:11.439Z,40.11
2022-10-04T13:42:48.886Z,42.66
2022-10-04T13:45:35.464Z,42.79
2022-10-04T13:48:02.056Z,41.77
2022-10-04T13:50:42.749Z,39.92
2022-10-04T13:53:33.917Z,39.70
2022-10-04T13:56:26.027Z,39.87
2022-10-04T13:58:52.580Z,39.43
2022-10-04T14:01:44.757Z,39.43
2022-10-04T14:04:49.444Z,39.23
2022-10-04T14:07:34.616Z,38.25
2022-10-04T14:10:17.405Z,38.23
2022-10-04T14:12:49.654Z,38.83
2022-10-04T14:15:47.101Z,39.29
2022-10-04T14:18:52.810Z,38.59
2022-10-04T14:21:52.974Z,37.79
2022-10-04T14:24:22.245Z,37.86
2022-10-04T14:27:03.792Z,38.38
2022-10-04T14:29:56.380Z,38.13
2022-10-04T14:32:41.521Z,39.18
2022-10-04T14:35:35.910Z,39.15
2022-10-04T14:38:08.552Z,39.47
2022-10-04T14:40:53.533Z,39.32
2022-10-04T14:43:35.133Z,39.92
2022-10-04T14:46:18.428Z,40.16
2022-10-04T14:48:45.030Z,40.16
2022-10-04T14:51:15.541Z,39.96
2022-10-04T14:54:11.438Z,39.35
2022-10-04T14:57:19.415Z,38.98
2022-10-04T14:59:54.630Z,37.78
2022-10-04T15:02:31.817Z,36.97
2022-10-04T15:05:31.086Z,37.76
2022-10-04T15:08:24.381Z,38.46
2022-10-04T15:10:58.784Z,38.91
2022-10-04T15:13:35.238Z,38.74
2022-10-04T15:16:21.011Z,39.21
2022-10-04T15:18:52.555Z,39.79
2022-10-04T15:21:32.521Z,40.62
2022-10-04T15:24:20.506Z,42.33
2022-10-04T15:27:14.598Z,43.38
2022-10-04T15:30:08.884Z,44.34
2022-10-04T15:32:53.627Z,45.61
2022-10-04T15:35:40.702Z,45.88
2022-10-04T15:38:34.477Z,46.53
2022-10-04T15:41:52.069Z,47.11
2022-10-04T15:44:52.241Z,48.29
2022-10-04T15:47:31.067Z,49.33
2022-10-04T15:50:23.581Z,49.56
2022-10-04T15:53:20.356Z,50.25
2022-10-04T15:56:06.863Z,51.19
2022-10-04T15:58:50.599Z,51.69
2022-10-04T16:01:59.126Z,52.68
2022-10-04T16:04:37.897Z,53.86
2022-10-04T16:07:07.310Z,54.34
2022-10-04T16:09:42.309Z,54.87
2022-10-04T16:12:23.274Z,56.07
2022-10-04T16:15:14.049Z,56.99
2022-10-04T16:17:45.173Z,57.62
2022-10-04T16:20:26.420Z,59.23
2022-10-04T16:23:26.623Z,60.16
2022-10-04T16:25:55.721Z,61.17
2022-10-04T16:28:49.815Z,61.58
2022-10-04T16:32:05.173Z,62.79
2022-10-04T16:34:45.389Z,63.78
2022-10-04T16:37:23.912Z,64.55
2022-10-04T16:39:59.296Z,65.20
2022-10-04T16:42:57.386Z,65.84
2022-10-04T16:45:49.571Z,67.17
2022-10-04T16:48:34.712Z,67.95
2022-10-04T16:51:16.185Z,68.72
2022-10-04T16:53:54.831Z,69.10
2022-10-04T16:56:23.093Z,69.90
2022-10-04T16:59:12.936Z,70.49
2022-10-04T17:01:54.366Z,70.83
2022-10-04T17:04:36.959Z,71.47
2022-10-04T17:07:14.573Z,72.20
2022-10-04T17:09:41.152Z,73.25
2022-10-04T17:12:46.823Z,73.10
2022-10-04T17:15:38.361Z,73.42
2022-10-04T17:18:30.537Z,73.45
2022-10-04T17:20:59.916Z,74.25
2022-10-04T17:23:56.251Z,74.53
2022-10-04T17:26:42.063Z,75.22
2022-10-04T17:29:16.122Z,75.79
2022-10-04T17:31:59.405Z,76.21
2022-10-04T17:34:28.674Z,76.49
2022-10-04T17:37:24.665Z,77.05
2022-10-04T17:40:08.965Z,76.82
2022-10-04T17:42:54.392Z,77.30
2022-10-04T17:45:29.858Z,77.76
2022-10-04T17:48:48.352Z,78.41
2022-10-04T17:51:52.834Z,78.54
2022-10-04T17:55:07.282Z,78.84
2022-10-04T17:57:49.261Z,78.87
2022-10-04T18:00:26.469Z,78.80
2022-10-04T18:02:55.597Z,78.78
2022-10-04T18:05:27.141Z,79.04
2022-10-04T18:08:01.314Z,78.84
2022-10-04T18:10:38.717Z,78.88
2022-10-04T18:13:26.105Z,79.49
2022-10-04T18:16:04.601Z,80.42
2022-10-04T18:18:39.660Z,80.66
2022-10-04T18:21:19.686Z,80.90
2022-10-04T18:23:56.454Z,80.80
2022-10-04T18:26:24.938Z,80.79
2022-10-04T18:28:54.292Z,80.68
2022-10-04T18:31:35.419Z,81.03
2022-10-04T18:34:16.612Z,81.63
2022-10-04T18:36:51.853Z,81.65
2022-10-04T18:39:21.999Z,82.21
2022-10-04T18:42:11.912Z,81.78
2022-10-04T18:44:47.893Z,81.63
2022-10-04T18:47:21.332Z,80.96
2022-10-04T18:49:49.738Z,82.46
2022-10-04T18:52:26.206Z,82.57
2022-10-04T18:55:08.716Z,82.02
2022-10-04T18:58:02.794Z,82.30
2022-10-04T19:00:56.640Z,82.89
2022-10-04T19:03:31.119Z,83.10
2022-10-04T19:06:13.787Z,82.73
2022-10-04T19:09:16.876Z,82.31
2022-10-04T19:11:59.055Z,82.40
2022-10-04T19:14:33.143Z,82.21
2022-10-04T19:17:21.650Z,82.63
2022-10-04T19:20:03.323Z,82.33
2022-10-04T19:22:42.825Z,81.84
2022-10-04T19:25:21.548Z,82.18
2022-10-04T19:27:58.040Z,82.21
2022-10-04T19:30:26.241Z,82.65
2022-10-04T19:33:11.839Z,82.68
2022-10-04T19:35:59.254Z,83.00
2022-10-04T19:38:55.617Z,82.58
2022-10-04T19:41:28.377Z,82.55
2022-10-04T19:43:59.599Z,82.73
2022-10-04T19:46:56.133Z,82.89
2022-10-04T19:49:36.581Z,83.41
2022-10-04T19:52:26.209Z,83.46
2022-10-04T19:55:12.701Z,83.87
2022-10-04T19:57:39.398Z,84.17
2022-10-04T20:00:12.770Z,84.31
2022-10-04T20:02:48.163Z,84.43
2022-10-04T20:05:20.174Z,84.52
2022-10-04T20:07:51.545Z,84.24
2022-10-04T20:10:22.558Z,83.60
2022-10-04T20:13:07.845Z,83.16
2022-10-04T20:15:35.422Z,83.88
2022-10-04T20:18:03.312Z,84.33
2022-10-04T20:20:39.134Z,84.59
2022-10-04T20:23:11.955Z,84.01
2022-10-04T20:25:45.612Z,84.35
2022-10-04T20:28:27.615Z,85.05
2022-10-04T20:30:58.714Z,85.08
2022-10-04T20:33:34.096Z,84.60
2022-10-04T20:36:02.471Z,84.21
2022-10-04T20:38:51.668Z,84.38
2022-10-04T20:41:50.490Z,84.68
2022-10-04T20:44:44.755Z,85.53
2022-10-04T20:47:34.474Z,86.72
2022-10-04T20:50:01.821Z,87.90
2022-10-04T20:52:32.929Z,87.18
2022-10-04T20:55:03.723Z,86.32
2022-10-04T20:57:30.561Z,86.59
2022-10-04T20:59:57.957Z,87.47
2022-10-04T21:02:28.464Z,88.15
2022-10-04T21:04:57.643Z,88.43
2022-10-04T21:07:26.455Z,87.90
2022-10-04T21:09:54.672Z,87.76
2022-10-04T21:12:36.091Z,87.72
2022-10-04T21:15:17.951Z,87.18
2022-10-04T21:18:06.126Z,86.97
2022-10-04T21:20:42.565Z,86.02
2022-10-04T21:23:17.283Z,85.72
2022-10-04T21:25:43.977Z,85.82
2022-10-04T21:28:24.881Z,85.61
2022-10-04T21:30:51.576Z,86.85
2022-10-04T21:33:18.236Z,88.18
2022-10-04T21:35:44.856Z,88.14
2022-10-04T21:38:11.585Z,87.54
2022-10-04T21:40:38.182Z,87.43
2022-10-04T21:43:05.850Z,87.15
2022-10-04T21:45:32.491Z,87.23
2022-10-04T21:47:59.139Z,86.39
2022-10-04T21:50:25.882Z,85.78
2022-10-04T21:52:52.486Z,85.41
2022-10-04T21:55:19.427Z,85.22
2022-10-04T21:57:46.065Z,86.18
2022-10-04T22:00:13.118Z,86.43
2022-10-04T22:02:39.848Z,86.68
2022-10-04T22:05:06.638Z,86.19
2022-10-04T22:07:33.266Z,85.62
2022-10-04T22:09:59.916Z,85.55
2022-10-04T22:12:26.931Z,85.95
2022-10-04T22:14:53.533Z,87.03
2022-10-04T22:17:20.157Z,87.43
2022-10-04T22:19:46.869Z,87.25
2022-10-04T22:22:17.130Z,86.64
2022-10-04T22:24:45.279Z,87.13
2022-10-04T22:27:16.660Z,87.31
2022-10-04T22:29:43.576Z,87.28
2022-10-04T22:32:24.689Z,87.52
2022-10-04T22:34:58.669Z,87.24
2022-10-04T22:37:25.478Z,87.01
2022-10-04T22:39:52.877Z,87.21
2022-10-04T22:42:20.937Z,86.80
2022-10-04T22:44:47.678Z,87.38
2022-10-04T22:47:15.385Z,87.83
2022-10-04T22:49:44.840Z,87.55
2022-10-04T22:52:15.474Z,87.75
2022-10-04T22:54:45.313Z,87.80
2022-10-04T22:57:14.396Z,87.15
2022-10-04T22:59:44.150Z,86.50
2022-10-04T23:02:20.064Z,86.10
2022-10-04T23:04:53.324Z,86.33
2022-10-04T23:07:20.179Z,86.72
2022-10-04T23:09:47.361Z,87.19
2022-10-04T23:12:14.034Z,86.70
2022-10-04T23:14:41.748Z,87.22
2022-10-04T23:17:24.703Z,87.23
2022-10-04T23:20:18.549Z,86.60
2022-10-04T23:22:47.217Z,86.70
2022-10-04T23:25:17.275Z,86.74
2022-10-04T23:27:45.386Z,86.42
2022-10-04T23:30:18.371Z,85.97
2022-10-04T23:32:46.740Z,86.15
2022-10-04T23:35:19.872Z,86.29
2022-10-04T23:37:47.361Z,86.55
2022-10-04T23:40:16.809Z,86.47
2022-10-04T23:42:43.652Z,86.68
2022-10-04T23:45:17.350Z,87.76
2022-10-04T23:47:44.737Z,87.65
2022-10-04T23:50:20.178Z,87.92
2022-10-04T23:52:46.947Z,87.85
2022-10-04T23:55:35.541Z,88.16
2022-10-04T23:58:02.286Z,88.80
